Time;durP1;ratioP1;P1;durP2;ratioP2;P2;SDS_P1;SDS_P2;PMS_P1;PMS_P2;Temp;Humidity;BMP_temperature;BMP_pressure;BME280_temperature;BME280_humidity;BME280_pressure;Samples;Min_cycle;Max_cycle;Signal;HPM_P1;HPM_P2
2023/09/30 00:02:15;;;;;;;14.48;9.18;;;;;;;;;;4983621;28;20090;-75
2023/09/30 00:04:41;;;;;;;15.47;8.73;;;;;;;;;;4987447;28;20495;-76
2023/09/30 00:07:06;;;;;;;19.98;9.52;;;;;;;;;;4984709;28;20279;-73
2023/09/30 00:09:31;;;;;;;12.50;8.75;;;;;;;;;;4983116;28;20054;-75
2023/09/30 00:11:57;;;;;;;17.83;8.50;;;;;;;;;;4980920;28;20041;-76
2023/09/30 00:14:22;;;;;;;14.63;8.82;;;;;;;;;;4977348;28;20395;-75
2023/09/30 00:16:47;;;;;;;15.35;8.75;;;;;;;;;;4985190;28;20452;-75
2023/09/30 00:19:13;;;;;;;17.10;9.03;;;;;;;;;;4981248;28;20473;-74
2023/09/30 00:21:38;;;;;;;17.10;8.85;;;;;;;;;;4982559;28;20509;-74
2023/09/30 00:24:04;;;;;;;13.98;8.60;;;;;;;;;;4981823;28;20101;-74
2023/09/30 00:26:29;;;;;;;14.73;8.82;;;;;;;;;;4983498;28;20022;-75
2023/09/30 00:28:54;;;;;;;16.93;8.57;;;;;;;;;;4977103;28;20440;-75
2023/09/30 00:31:19;;;;;;;15.20;8.80;;;;;;;;;;4982381;28;20030;-74
2023/09/30 00:33:45;;;;;;;15.47;8.93;;;;;;;;;;4983692;28;20276;-75
2023/09/30 00:36:11;;;;;;;15.10;8.63;;;;;;;;;;4983921;28;20310;-74
2023/09/30 00:38:39;;;;;;;13.90;8.60;;;;;;;;;;4985161;28;20616;-74
2023/09/30 00:41:05;;;;;;;14.43;8.27;;;;;;;;;;4984390;28;20045;-74
2023/09/30 00:43:31;;;;;;;16.63;8.60;;;;;;;;;;4986325;28;20057;-75
2023/09/30 00:46:12;;;;;;;20.65;8.75;;;;;;;;;;4984622;28;20030;-74
2023/09/30 00:48:37;;;;;;;21.27;9.07;;;;;;;;;;4983634;28;20018;-75
2023/09/30 00:51:03;;;;;;;17.13;8.68;;;;;;;;;;4982803;28;20384;-75
2023/09/30 00:53:29;;;;;;;13.70;8.52;;;;;;;;;;4994924;28;20021;-74
2023/09/30 00:55:56;;;;;;;12.50;8.10;;;;;;;;;;4977688;28;20031;-75
2023/09/30 00:58:23;;;;;;;18.15;8.90;;;;;;;;;;4977901;28;20061;-75
2023/09/30 01:00:49;;;;;;;20.40;8.57;;;;;;;;;;4982718;28;20030;-75
2023/09/30 01:03:14;;;;;;;18.65;9.10;;;;;;;;;;4981201;28;20033;-75
2023/09/30 01:05:39;;;;;;;12.90;8.63;;;;;;;;;;4981668;28;20425;-75
2023/09/30 01:08:05;;;;;;;15.65;8.57;;;;;;;;;;4985240;28;20349;-75
2023/09/30 01:10:30;;;;;;;14.82;8.75;;;;;;;;;;4982208;28;20062;-75
2023/09/30 01:12:55;;;;;;;16.75;8.13;;;;;;;;;;4980654;28;20038;-74
2023/09/30 01:15:21;;;;;;;19.80;8.80;;;;;;;;;;4983896;28;20057;-73
2023/09/30 01:17:46;;;;;;;15.85;8.57;;;;;;;;;;4982184;28;20608;-75
2023/09/30 01:20:16;;;;;;;15.17;8.37;;;;;;;;;;4981720;28;20477;-75
2023/09/30 01:22:41;;;;;;;13.80;8.82;;;;;;;;;;4982897;28;20081;-75
2023/09/30 01:25:07;;;;;;;20.17;8.00;;;;;;;;;;4982278;28;20037;-75
2023/09/30 01:27:32;;;;;;;14.23;8.48;;;;;;;;;;4983015;28;20029;-75
2023/09/30 01:29:58;;;;;;;16.52;8.93;;;;;;;;;;4984467;28;20069;-75
2023/09/30 01:32:23;;;;;;;18.00;8.48;;;;;;;;;;4983548;28;20022;-75
2023/09/30 01:34:48;;;;;;;17.57;8.17;;;;;;;;;;4981601;28;20388;-75
2023/09/30 01:37:13;;;;;;;20.65;8.57;;;;;;;;;;4985728;28;20272;-75
2023/09/30 01:39:39;;;;;;;14.47;8.60;;;;;;;;;;4984675;28;20028;-74
2023/09/30 01:42:04;;;;;;;18.85;9.45;;;;;;;;;;4983593;28;20603;-74
2023/09/30 01:44:29;;;;;;;14.23;8.67;;;;;;;;;;4981993;28;20030;-75
2023/09/30 01:46:55;;;;;;;24.13;9.23;;;;;;;;;;4981491;28;20350;-75
2023/09/30 01:49:23;;;;;;;17.85;9.50;;;;;;;;;;4980748;28;20034;-76
2023/09/30 01:51:49;;;;;;;16.60;8.83;;;;;;;;;;4980341;28;20033;-75
2023/09/30 01:54:14;;;;;;;14.37;9.70;;;;;;;;;;4977931;28;20279;-74
2023/09/30 01:56:39;;;;;;;15.13;9.43;;;;;;;;;;4981376;28;20279;-75
2023/09/30 01:59:04;;;;;;;18.23;8.83;;;;;;;;;;4983595;28;20080;-73
2023/09/30 02:01:30;;;;;;;19.40;9.87;;;;;;;;;;4981805;28;20284;-75
2023/09/30 02:03:55;;;;;;;15.20;9.10;;;;;;;;;;4981971;28;20074;-74
2023/09/30 02:06:20;;;;;;;18.13;9.93;;;;;;;;;;4981189;28;20113;-74
2023/09/30 02:08:46;;;;;;;16.60;9.87;;;;;;;;;;4980178;28;20049;-74
2023/09/30 02:11:13;;;;;;;15.03;9.20;;;;;;;;;;4984266;28;20296;-75
2023/09/30 02:13:38;;;;;;;18.15;8.82;;;;;;;;;;4981401;28;20026;-74
2023/09/30 02:16:03;;;;;;;17.65;9.35;;;;;;;;;;4981174;28;20054;-76
2023/09/30 02:18:32;;;;;;;14.20;9.03;;;;;;;;;;4978898;28;20034;-76
2023/09/30 02:20:59;;;;;;;19.77;9.50;;;;;;;;;;4982554;28;20030;-75
2023/09/30 02:23:24;;;;;;;17.33;9.00;;;;;;;;;;4983174;28;20039;-74
2023/09/30 02:25:50;;;;;;;21.83;9.60;;;;;;;;;;4979960;28;20022;-74
2023/09/30 02:28:15;;;;;;;16.73;9.32;;;;;;;;;;4980620;28;20034;-76
2023/09/30 02:30:40;;;;;;;20.85;9.25;;;;;;;;;;4983066;28;20038;-74
2023/09/30 02:33:07;;;;;;;14.70;8.63;;;;;;;;;;4980408;28;20030;-75
2023/09/30 02:35:32;;;;;;;14.85;9.38;;;;;;;;;;4983065;28;21123;-74
2023/09/30 02:37:58;;;;;;;25.05;9.10;;;;;;;;;;4978481;28;20030;-73
2023/09/30 02:40:24;;;;;;;13.85;9.10;;;;;;;;;;4979387;28;20077;-74
2023/09/30 02:42:50;;;;;;;17.13;9.70;;;;;;;;;;4977456;28;20027;-73
2023/09/30 02:45:17;;;;;;;17.88;9.55;;;;;;;;;;4982658;28;20525;-74
2023/09/30 02:47:42;;;;;;;16.73;9.65;;;;;;;12.28;nan;100981.72;4977943;28;20030;-73
2023/09/30 02:50:11;;;;;;;20.83;10.70;;;;;;;;;;4980654;28;20030;-74
2023/09/30 02:52:36;;;;;;;18.33;10.23;;;;;;;;;;4978361;28;20034;-73
2023/09/30 02:55:02;;;;;;;17.13;9.93;;;;;;;;;;4981827;28;20438;-73
2023/09/30 02:57:28;;;;;;;17.65;10.80;;;;;;;;;;4980450;28;20031;-73
2023/09/30 02:59:54;;;;;;;18.88;10.82;;;;;;;;;;4977303;28;20030;-74
2023/09/30 03:02:21;;;;;;;23.95;10.90;;;;;;;;;;4983978;28;20030;-72
2023/09/30 03:04:46;;;;;;;19.30;10.38;;;;;;;;;;4983316;28;20058;-75
2023/09/30 03:07:11;;;;;;;18.63;10.07;;;;;;;;;;4982208;28;20384;-75
2023/09/30 03:09:37;;;;;;;16.42;9.88;;;;;;;;;;4982115;28;20041;-74
2023/09/30 03:12:02;;;;;;;19.40;10.52;;;;;;;;;;4984328;28;20041;-75
2023/09/30 03:14:30;;;;;;;21.83;11.15;;;;;;;;;;4986589;28;20027;-76
2023/09/30 03:16:56;;;;;;;22.73;11.27;;;;;;;;;;4983821;28;20137;-73
2023/09/30 03:19:21;;;;;;;21.05;11.05;;;;;;;;;;4980275;28;20159;-75
2023/09/30 03:21:47;;;;;;;19.80;10.53;;;;;;;;;;4985066;28;20026;-75
2023/09/30 03:24:12;;;;;;;16.98;10.70;;;;;;;;;;4980341;28;20521;-75
2023/09/30 03:26:40;;;;;;;23.97;11.73;;;;;;;;;;4984476;28;20023;-75
2023/09/30 03:29:06;;;;;;;19.77;11.35;;;;;;;;;;4986803;28;20042;-75
2023/09/30 03:31:31;;;;;;;20.30;11.15;;;;;;;;;;4981713;28;20448;-74
2023/09/30 03:33:56;;;;;;;20.70;11.43;;;;;;;;;;4980881;28;20026;-75
2023/09/30 03:36:25;;;;;;;23.03;10.53;;;;;;;;;;4982408;28;20267;-75
2023/09/30 03:38:55;;;;;;;15.60;10.55;;;;;;;;;;4984788;28;20260;-75
2023/09/30 03:41:20;;;;;;;19.15;10.80;;;;;;;;;;4991946;28;20424;-75
2023/09/30 03:43:47;;;;;;;19.92;10.50;;;;;;;;;;4984984;28;20029;-75
2023/09/30 03:46:12;;;;;;;20.45;10.43;;;;;;;;;;4984484;28;20420;-74
2023/09/30 03:48:41;;;;;;;18.20;11.00;;;;;;;;;;4976732;28;20031;-74
2023/09/30 03:51:13;;;;;;;18.53;10.47;;;;;;;;;;4988380;28;20355;-73
2023/09/30 03:53:38;;;;;;;21.25;11.15;;;;;;;;;;4979457;28;20264;-74
2023/09/30 03:56:04;;;;;;;17.40;10.50;;;;;;;;;;4985542;28;20076;-74
2023/09/30 03:58:29;;;;;;;17.67;10.83;;;;;;;;;;4985053;28;20276;-75
2023/09/30 04:00:54;;;;;;;16.00;9.93;;;;;;;;;;4983934;28;20284;-75
2023/09/30 04:03:20;;;;;;;22.10;10.53;;;;;;;;;;4979278;28;20276;-74
2023/09/30 04:05:45;;;;;;;21.50;10.90;;;;;;;;;;4986545;28;20268;-74
2023/09/30 04:08:11;;;;;;;19.02;10.77;;;;;;;;;;4987579;28;20030;-74
2023/09/30 04:10:36;;;;;;;21.25;10.98;;;;;;;;;;4977504;28;20033;-73
2023/09/30 04:13:02;;;;;;;20.90;11.52;;;;;;;;;;4980812;28;20046;-73
2023/09/30 04:15:27;;;;;;;17.70;10.32;;;;;;;;;;4984400;28;20046;-74
2023/09/30 04:17:52;;;;;;;18.75;11.80;;;;;;;;;;4984182;28;20473;-74
2023/09/30 04:20:22;;;;;;;20.25;10.75;;;;;;;;;;4981027;28;20026;-73
2023/09/30 04:22:48;;;;;;;18.20;11.52;;;;;;;;;;4984696;28;20673;-73
2023/09/30 04:25:16;;;;;;;22.35;10.55;;;;;;;;;;4982998;28;20042;-75
2023/09/30 04:27:42;;;;;;;23.13;11.10;;;;;;;;;;4980080;28;20029;-75
2023/09/30 04:30:09;;;;;;;20.65;10.40;;;;;;;;;;4983887;28;20157;-73
2023/09/30 04:32:36;;;;;;;16.58;10.48;;;;;;;;;;4983002;28;20022;-74
2023/09/30 04:35:02;;;;;;;17.65;10.43;;;;;;;;;;4985924;28;20037;-73
2023/09/30 04:37:27;;;;;;;16.30;10.43;;;;;;;;;;4981104;28;20030;-74
2023/09/30 04:39:53;;;;;;;15.10;9.77;;;;;;;;;;4981035;28;20034;-72
2023/09/30 04:42:18;;;;;;;21.65;10.63;;;;;;;;;;4980011;28;20284;-75
2023/09/30 04:44:43;;;;;;;29.10;10.83;;;;;;;;;;4980685;28;20366;-74
2023/09/30 04:47:09;;;;;;;15.67;10.17;;;;;;;;;;4983757;28;20088;-73
2023/09/30 04:49:35;;;;;;;19.47;10.67;;;;;;;;;;4975806;28;20287;-72
2023/09/30 04:52:00;;;;;;;24.08;10.50;;;;;;;;;;4985938;28;20026;-75
2023/09/30 04:54:26;;;;;;;21.23;9.98;;;;;;;;;;4984251;28;20121;-73
2023/09/30 04:56:51;;;;;;;17.33;9.93;;;;;;;;;;4983152;28;20524;-73
2023/09/30 04:59:16;;;;;;;33.85;17.23;;;;;;;;;;4984218;28;20034;-73
2023/09/30 05:01:42;;;;;;;22.10;11.63;;;;;;;;;;4984591;28;20038;-73
2023/09/30 05:04:07;;;;;;;18.95;9.73;;;;;;;;;;4977454;28;20041;-73
2023/09/30 05:06:32;;;;;;;21.30;10.57;;;;;;;;;;4982337;28;20034;-73
2023/09/30 05:09:25;;;;;;;24.80;11.10;;;;;;;;;;4983907;28;20876;-73
2023/09/30 05:11:52;;;;;;;17.52;9.95;;;;;;;;;;4974703;28;20496;-74
2023/09/30 05:14:17;;;;;;;16.52;9.25;;;;;;;;;;4981874;28;20034;-73
2023/09/30 05:16:43;;;;;;;17.43;9.83;;;;;;;;;;4981873;28;20496;-73
2023/09/30 05:19:08;;;;;;;22.02;10.20;;;;;;;;;;4978646;28;20040;-73
2023/09/30 05:21:35;;;;;;;16.25;9.73;;;;;;;;;;4979961;28;20635;-73
2023/09/30 05:24:02;;;;;;;19.98;9.38;;;;;;;;;;4982676;28;20034;-74
2023/09/30 05:26:27;;;;;;;16.52;9.30;;;;;;;;;;4977576;28;20026;-73
2023/09/30 05:28:53;;;;;;;17.33;8.50;;;;;;;;;;4979198;28;20050;-72
2023/09/30 05:31:18;;;;;;;16.47;9.23;;;;;;;;;;4981027;28;20315;-73
2023/09/30 05:33:43;;;;;;;20.47;8.93;;;;;;;;;;4983905;28;20311;-72
2023/09/30 05:36:08;;;;;;;18.53;8.90;;;;;;;;;;4980360;28;20384;-74
2023/09/30 05:38:34;;;;;;;15.45;8.90;;;;;;;;;;4980610;28;20563;-74
2023/09/30 05:40:59;;;;;;;14.53;8.70;;;;;;;;;;4979393;28;20085;-75
2023/09/30 05:43:25;;;;;;;21.13;9.23;;;;;;;;;;4981525;28;20023;-74
2023/09/30 05:45:54;;;;;;;17.75;9.13;;;;;;;;;;4982704;28;20065;-75
2023/09/30 05:48:20;;;;;;;16.70;9.15;;;;;;;;;;4979754;28;20050;-74
2023/09/30 05:50:46;;;;;;;16.73;9.15;;;;;;;;;;4981598;28;20057;-73
2023/09/30 05:53:11;;;;;;;18.45;9.77;;;;;;;;;;4975002;28;20108;-71
2023/09/30 05:55:37;;;;;;;12.43;8.75;;;;;;;;;;4981733;28;20491;-72
2023/09/30 05:58:02;;;;;;;13.88;8.30;;;;;;;;;;4977208;28;20042;-72
2023/09/30 06:00:30;;;;;;;15.55;9.27;;;;;;;;;;4984520;28;20073;-72
2023/09/30 06:02:56;;;;;;;15.02;8.73;;;;;;;;;;4980443;28;20026;-73
2023/09/30 06:05:26;;;;;;;16.30;8.60;;;;;;;;;;4983107;28;20067;-72
2023/09/30 06:07:51;;;;;;;15.82;8.50;;;;;;;;;;4984073;28;20121;-73
2023/09/30 06:10:20;;;;;;;17.45;9.13;;;;;;;;;;4979604;28;20030;-72
2023/09/30 06:12:48;;;;;;;19.17;9.85;;;;;;;;;;4980786;28;20713;-72
2023/09/30 06:15:15;;;;;;;;;;;;;;;;;;4973907;28;20046;-73
2023/09/30 06:17:40;;;;;;;16.75;8.70;;;;;;;;;;4977436;28;19925;-74
2023/09/30 06:20:15;;;;;;;16.63;9.02;;;;;;;;;;4979277;28;20026;-72
2023/09/30 06:22:41;;;;;;;14.95;8.68;;;;;;;;;;4979837;28;20051;-72
2023/09/30 06:25:06;;;;;;;17.38;8.70;;;;;;;;;;4981210;28;20069;-73
2023/09/30 06:27:32;;;;;;;16.48;8.70;;;;;;;;;;4981250;28;20038;-73
2023/09/30 06:29:57;;;;;;;18.37;9.40;;;;;;;;;;4978566;28;20484;-72
2023/09/30 06:32:22;;;;;;;20.70;10.47;;;;;;;;;;4980683;28;20038;-72
2023/09/30 06:34:47;;;;;;;35.23;17.70;;;;;;;;;;4980967;28;20030;-72
2023/09/30 06:37:13;;;;;;;25.27;11.43;;;;;;;;;;4979788;28;20832;-73
2023/09/30 06:39:39;;;;;;;17.15;9.77;;;;;;;;;;4981976;28;20687;-70
2023/09/30 06:42:04;;;;;;;19.90;9.07;;;;;;;;;;4978738;28;20105;-73
2023/09/30 06:44:31;;;;;;;19.05;8.70;;;;;;;;;;4975922;28;20264;-74
2023/09/30 06:46:56;;;;;;;12.90;7.32;;;;;;;;;;4982388;28;20045;-74
2023/09/30 06:49:21;;;;;;;16.92;8.25;;;;;;;;;;4981905;28;20026;-73
2023/09/30 06:51:47;;;;;;;18.63;9.07;;;;;;;;;;4978599;28;20044;-73
2023/09/30 06:54:12;;;;;;;14.82;7.78;;;;;;;;;;4979844;28;20061;-73
2023/09/30 06:56:38;;;;;;;18.17;8.88;;;;;;;;;;4982435;28;20488;-72
2023/09/30 06:59:03;;;;;;;21.77;8.03;;;;;;;;;;4980780;28;20459;-73
2023/09/30 07:01:28;;;;;;;15.43;7.97;;;;;;;;;;4977548;28;20034;-73
2023/09/30 07:03:54;;;;;;;12.77;8.50;;;;;;;;;;4978510;28;20266;-73
2023/09/30 07:06:23;;;;;;;15.80;7.57;;;;;;;;;;4979145;28;20030;-72
2023/09/30 07:08:49;;;;;;;14.45;7.63;;;;;;;;;;4977756;28;20292;-73
2023/09/30 07:11:14;;;;;;;16.97;7.13;;;;;;;;;;4980907;28;20105;-72
2023/09/30 07:13:39;;;;;;;14.80;7.47;;;;;;;;;;4978618;28;20045;-71
2023/09/30 07:16:05;;;;;;;11.33;7.10;;;;;;;;;;4981302;28;20054;-72
2023/09/30 07:18:32;;;;;;;14.50;7.50;;;;;;;;;;4976216;28;20359;-71
2023/09/30 07:20:57;;;;;;;18.13;7.50;;;;;;;;;;4985545;28;20491;-72
2023/09/30 07:23:22;;;;;;;9.43;6.70;;;;;;;;;;4980976;28;20362;-73
2023/09/30 07:25:48;;;;;;;13.13;7.23;;;;;;;;;;4975967;28;20645;-72
2023/09/30 07:28:13;;;;;;;11.98;7.32;;;;;;;;;;4978702;28;20338;-72
2023/09/30 07:30:39;;;;;;;15.25;8.00;;;;;;;;;;4981931;28;20042;-72
2023/09/30 07:33:05;;;;;;;13.70;7.68;;;;;;;;;;4980713;28;20029;-73
2023/09/30 07:35:31;;;;;;;14.63;7.53;;;;;;;;;;4980033;28;20026;-72
2023/09/30 07:37:56;;;;;;;16.27;8.38;;;;;;;;;;4980362;28;20050;-73
2023/09/30 07:40:21;;;;;;;24.43;13.77;;;;;;;;;;4978669;28;20030;-73
2023/09/30 07:42:46;;;;;;;23.97;12.40;;;;;;;;;;4978856;28;20485;-72
2023/09/30 07:45:16;;;;;;;14.50;8.05;;;;;;;;;;4980290;28;20303;-73
2023/09/30 07:47:42;;;;;;;12.82;7.43;;;;;;;;;;4980860;28;20019;-72
2023/09/30 07:50:09;;;;;;;17.42;9.45;;;;;;;;;;4983556;28;20384;-71
2023/09/30 07:52:35;;;;;;;17.05;7.57;;;;;;;;;;4983373;28;20369;-73
2023/09/30 07:55:00;;;;;;;14.32;7.43;;;;;;;;;;4974155;28;20049;-71
2023/09/30 07:57:25;;;;;;;12.55;6.80;;;;;;;;;;4979968;28;20026;-71
2023/09/30 07:59:51;;;;;;;20.42;7.57;;;;;;;;;;4982957;28;20093;-74
2023/09/30 08:02:17;;;;;;;21.08;7.53;;;;;;;;;;4983175;28;20034;-72
2023/09/30 08:04:43;;;;;;;15.23;7.18;;;;;;;;;;4983991;28;20036;-73
2023/09/30 08:07:09;;;;;;;10.63;6.20;;;;;;;;;;4985069;28;20381;-71
2023/09/30 08:09:34;;;;;;;13.63;6.93;;;;;;;;;;4984041;28;20030;-71
2023/09/30 08:11:59;;;;;;;21.02;6.57;;;;;;;;;;4986282;28;20038;-71
2023/09/30 08:14:25;;;;;;;14.80;6.40;;;;;;;;;;4981369;28;20042;-70
2023/09/30 08:16:50;;;;;;;18.40;6.50;;;;;;;;;;4979269;28;20386;-70
2023/09/30 08:19:16;;;;;;;13.38;6.55;;;;;;;;;;4985484;28;20045;-70
2023/09/30 08:21:41;;;;;;;35.50;7.90;;;;;;;;;;4982770;28;20037;-70
2023/09/30 08:24:06;;;;;;;18.40;7.93;;;;;;;;;;4982831;28;20354;-70
2023/09/30 08:26:33;;;;;;;14.63;6.68;;;;;;;;;;4984514;28;20393;-70
2023/09/30 08:28:58;;;;;;;13.07;6.13;;;;;;;;;;4983181;28;20062;-71
2023/09/30 08:31:24;;;;;;;14.83;6.70;;;;;;;;;;4982923;28;20476;-71
2023/09/30 08:33:49;;;;;;;11.68;6.43;;;;;;;;;;4982253;28;20045;-71
2023/09/30 08:36:14;;;;;;;11.40;6.43;;;;;;;18.41;nan;101079.50;4984610;28;20468;-70
2023/09/30 08:38:40;;;;;;;19.80;6.65;;;;;;;;;;4981259;28;20286;-70
2023/09/30 08:41:07;;;;;;;12.57;6.47;;;;;;;;;;4983642;28;20030;-70
2023/09/30 08:43:36;;;;;;;12.68;6.78;;;;;;;;;;4984271;28;20436;-71
2023/09/30 08:46:02;;;;;;;10.38;5.68;;;;;;;18.88;nan;101097.28;4983667;28;20030;-70
2023/09/30 08:48:28;;;;;;;12.20;6.28;;;;;;;;;;4982228;28;20080;-70
2023/09/30 08:50:57;;;;;;;10.05;5.70;;;;;;;19.16;nan;101083.75;4993080;28;20594;-69
2023/09/30 08:53:24;;;;;;;9.85;6.00;;;;;;;19.26;nan;101076.53;4996074;28;20480;-68
2023/09/30 08:55:52;;;;;;;16.63;5.82;;;;;;;;;;4989157;28;20089;-68
2023/09/30 08:58:19;;;;;;;11.00;6.32;;;;;;;19.39;nan;101064.50;4982425;28;20086;-68
2023/09/30 09:00:45;;;;;;;13.23;5.80;;;;;;;19.59;nan;101069.03;4986728;28;20130;-68
2023/09/30 09:03:10;;;;;;;9.38;6.15;;;;;;;19.73;nan;101070.13;4988391;28;20129;-68
2023/09/30 09:05:36;;;;;;;14.40;6.15;;;;;;;19.88;nan;101073.84;4985683;28;20366;-68
2023/09/30 09:08:01;;;;;;;15.50;5.97;;;;;;;19.98;nan;101071.94;4982866;28;20063;-69
2023/09/30 09:10:26;;;;;;;12.77;6.07;;;;;;;20.15;nan;100990.59;4980667;28;20026;-68
2023/09/30 09:12:57;;;;;;;17.33;6.53;;;;;;;20.28;nan;101101.53;4981660;28;20030;-68
2023/09/30 09:15:30;;;;;;;20.90;6.47;;;;;;;20.35;nan;101054.72;4985575;28;20125;-69
2023/09/30 09:17:56;;;;;;;16.95;5.80;;;;;;;20.51;nan;101057.31;4985137;28;20038;-70
2023/09/30 09:20:25;;;;;;;14.80;5.82;;;;;;;20.58;nan;101053.28;4981562;28;20022;-69
2023/09/30 09:22:53;;;;;;;15.95;5.95;;;;;;;20.70;nan;101055.63;4981434;28;20118;-68
2023/09/30 09:25:23;;;;;;;16.50;5.93;;;;;;;20.80;nan;101019.97;4982487;28;20038;-69
2023/09/30 09:27:48;;;;;;;;;;;;;;;20.99;nan;101044.19;4978741;28;20033;-68
2023/09/30 09:30:25;;;;;;;13.43;5.85;;;;;;;21.14;nan;101056.66;4982737;28;20292;-68
2023/09/30 09:33:00;;;;;;;12.43;5.60;;;;;;;21.25;nan;101042.91;4979682;28;20038;-69
2023/09/30 09:35:30;;;;;;;9.68;5.90;;;;;;;21.42;nan;101065.84;4999064;28;20088;-68
2023/09/30 09:38:00;;;;;;;16.92;5.88;;;;;;;21.52;nan;101051.56;4983278;28;20042;-68
2023/09/30 09:40:28;;;;;;;13.05;5.88;;;;;;;21.61;nan;101063.28;4981053;28;20023;-69
2023/09/30 09:42:54;;;;;;;12.15;5.30;;;;;;;;;;4982176;28;20041;-68
2023/09/30 09:45:24;;;;;;;101.55;9.90;;;;;;;21.85;nan;101050.69;4978833;28;20033;-68
2023/09/30 09:47:51;;;;;;;24.02;8.70;;;;;;;21.95;nan;101040.94;4983441;28;20054;-68
2023/09/30 09:50:18;;;;;;;12.65;5.60;;;;;;;22.12;nan;101041.28;4981583;28;20027;-70
2023/09/30 09:52:47;;;;;;;11.07;5.55;;;;;;;22.23;nan;101090.28;4981479;28;20041;-69
2023/09/30 09:55:15;;;;;;;18.45;6.45;;;;;;;22.39;nan;101051.44;4980585;28;20036;-70
2023/09/30 09:57:41;;;;;;;12.05;6.05;;;;;;;22.44;nan;101042.53;4982433;28;20041;-70
2023/09/30 10:00:13;;;;;;;16.23;6.43;;;;;;;22.46;nan;101040.38;4979868;28;20045;-70
2023/09/30 10:02:40;;;;;;;11.60;6.15;;;;;;;22.58;nan;101037.22;4980634;28;20026;-69
2023/09/30 10:05:07;;;;;;;12.45;5.65;;;;;;;22.67;nan;100997.91;4981436;28;20733;-69
2023/09/30 10:07:53;;;;;;;11.65;5.93;;;;;;;22.80;nan;101029.41;4979037;28;20136;-68
2023/09/30 10:10:22;;;;;;;19.05;9.10;;;;;;;22.89;nan;101024.97;4979867;28;20030;-69
2023/09/30 10:12:47;;;;;;;13.53;6.10;;;;;;;22.96;nan;101027.25;4980835;28;20508;-70
2023/09/30 10:15:25;;;;;;;13.13;5.55;;;;;;;23.09;nan;101028.44;4979388;28;20279;-71
2023/09/30 10:18:23;;;;;;;16.63;5.85;;;;;;;23.21;nan;101018.03;4992202;28;20066;-69
2023/09/30 10:20:49;;;;;;;12.45;5.70;;;;;;;23.31;nan;101007.09;4944144;28;20070;-70
2023/09/30 10:23:21;;;;;;;16.83;6.13;;;;;;;23.31;nan;100996.34;4943496;28;20486;-70
2023/09/30 10:25:47;;;;;;;11.45;6.50;;;;;;;23.34;nan;101006.53;4942690;28;20035;-70
2023/09/30 10:28:51;;;;;;;13.80;6.43;;;;;;;23.37;nan;101013.22;4938101;28;20600;-69
2023/09/30 10:31:24;;;;;;;13.43;6.43;;;;;;;23.40;nan;100993.78;4892884;29;20044;-69
2023/09/30 10:34:02;;;;;;;12.52;6.72;;;;;;;23.55;nan;101006.94;4887087;29;20028;-70
2023/09/30 10:36:33;;;;;;;9.90;5.57;;;;;;;23.64;nan;100998.19;4887274;29;20581;-70
2023/09/30 10:38:58;;;;;;;11.05;6.18;;;;;;;23.83;nan;101004.31;4889469;29;20429;-69
2023/09/30 10:41:45;;;;;;;14.13;6.22;;;;;;;24.00;nan;101011.78;4883871;29;20036;-70
2023/09/30 10:44:22;;;;;;;10.65;6.82;;;;;;;24.04;nan;100995.81;4889707;29;21992;-69
2023/09/30 10:46:49;;;;;;;14.25;6.70;;;;;;;24.01;nan;100948.00;4891719;29;20403;-75
2023/09/30 10:49:17;;;;;;;17.02;6.40;;;;;;;24.14;nan;101007.16;4890888;29;20040;-75
2023/09/30 10:51:43;;;;;;;14.73;6.33;;;;;;;24.22;nan;101019.13;4893662;29;20111;-74
2023/09/30 10:54:08;;;;;;;10.95;6.35;;;;;;;24.30;nan;100999.56;4892354;29;20293;-70
2023/09/30 10:56:34;;;;;;;10.90;6.20;;;;;;;24.34;nan;100960.16;4905865;29;20122;-69
2023/09/30 10:59:02;;;;;;;13.15;6.25;;;;;;;24.32;nan;101018.88;4906513;29;20110;-72
2023/09/30 11:01:33;;;;;;;10.65;6.78;;;;;;;24.35;nan;100986.00;4926212;28;20045;-68
2023/09/30 11:04:05;;;;;;;13.90;6.20;;;;;;;24.45;nan;100958.06;4980474;28;20039;-68
2023/09/30 11:06:31;;;;;;;13.23;6.75;;;;;;;24.58;nan;100967.19;4983755;28;20375;-69
2023/09/30 11:08:59;;;;;;;16.55;6.93;;;;;;;24.76;nan;100973.53;4980169;28;20035;-68
2023/09/30 11:11:53;;;;;;;7.70;5.63;;;;;;;24.87;nan;100964.06;4979399;28;20022;-68
2023/09/30 11:14:30;;;;;;;15.25;6.03;;;;;;;24.98;nan;100943.06;4979500;28;20041;-71
2023/09/30 11:17:01;;;;;;;10.45;5.60;;;;;;;24.95;nan;100919.41;4979621;28;20161;-71
2023/09/30 11:19:35;;;;;;;9.05;5.60;;;;;;;24.87;nan;100949.81;4979127;28;20113;-70
2023/09/30 11:22:00;;;;;;;10.98;5.50;;;;;;;24.94;nan;100947.47;4976965;28;20480;-72
2023/09/30 11:24:26;;;;;;;10.82;5.13;;;;;;;25.09;nan;100965.16;4984340;28;20026;-70
2023/09/30 11:26:58;;;;;;;11.60;5.88;;;;;;;25.18;nan;100929.06;4985960;28;20045;-70
2023/09/30 11:29:24;;;;;;;15.35;7.18;;;;;;;25.19;nan;100986.50;4985976;28;20027;-71
2023/09/30 11:31:50;;;;;;;10.73;5.43;;;;;;;25.24;nan;100989.06;4982417;28;20114;-71
2023/09/30 11:34:17;;;;;;;7.95;5.13;;;;;;;25.31;nan;100940.88;4994169;28;20034;-71
2023/09/30 11:36:54;;;;;;;11.73;5.38;;;;;;;25.34;nan;100928.69;4979740;28;20448;-71
2023/09/30 11:39:24;;;;;;;14.15;5.18;;;;;;;25.28;nan;100932.59;4982276;28;20034;-69
2023/09/30 11:41:50;;;;;;;11.63;5.35;;;;;;;25.25;nan;100942.91;4981600;28;20030;-70
2023/09/30 11:44:17;;;;;;;8.85;4.90;;;;;;;25.35;nan;100922.16;4982088;28;20705;-69
2023/09/30 11:46:49;;;;;;;12.48;5.68;;;;;;;25.50;nan;100927.16;4980187;28;20023;-69
2023/09/30 11:49:38;;;;;;;9.88;4.70;;;;;;;25.68;nan;100939.56;4979559;28;20544;-70
2023/09/30 11:52:07;;;;;;;9.27;4.63;;;;;;;25.77;nan;100926.09;4976966;28;20031;-70
2023/09/30 11:54:44;;;;;;;8.85;6.05;;;;;;;25.82;nan;100927.88;4978503;28;20761;-69
2023/09/30 11:57:16;;;;;;;9.75;5.10;;;;;;;25.71;nan;100896.88;4978145;28;20057;-69
2023/09/30 11:59:43;;;;;;;8.60;4.50;;;;;;;25.64;nan;100925.13;4977713;28;20113;-73
2023/09/30 12:02:09;;;;;;;8.48;4.63;;;;;;;25.72;nan;100920.88;4979215;28;20050;-73
2023/09/30 12:04:36;;;;;;;7.88;4.70;;;;;;;25.71;nan;100900.38;4975545;28;20103;-74
2023/09/30 12:07:02;;;;;;;9.55;5.03;;;;;;;25.76;nan;100924.50;4975355;28;20118;-73
2023/09/30 12:09:28;;;;;;;10.02;5.00;;;;;;;25.74;nan;100921.34;4980388;28;20027;-73
2023/09/30 12:11:55;;;;;;;5.88;4.70;;;;;;;25.71;nan;100930.03;4978828;28;20352;-73
2023/09/30 12:14:21;;;;;;;9.82;4.68;;;;;;;25.74;nan;100958.28;4975598;28;20035;-74
2023/09/30 12:16:47;;;;;;;9.50;4.30;;;;;;;25.93;nan;100928.38;4977330;28;20124;-71
2023/09/30 12:19:20;;;;;;;9.02;4.88;;;;;;;26.08;nan;100909.03;4976849;28;20026;-70
2023/09/30 12:21:47;;;;;;;6.07;4.40;;;;;;;26.19;nan;100910.28;4975970;28;20034;-74
2023/09/30 12:24:19;;;;;;;10.45;4.60;;;;;;;26.14;nan;100907.75;4987755;28;20034;-70
2023/09/30 12:26:48;;;;;;;5.35;4.20;;;;;;;26.17;nan;100960.31;4982413;28;20030;-71
2023/09/30 12:29:18;;;;;;;8.25;4.05;;;;;;;26.30;nan;100954.75;4983927;28;20034;-70
2023/09/30 12:31:50;;;;;;;7.70;4.10;;;;;;;26.43;nan;100909.78;4984562;28;20022;-71
2023/09/30 12:34:17;;;;;;;8.77;4.10;;;;;;;26.42;nan;100878.50;4999557;28;20744;-70
2023/09/30 12:36:43;;;;;;;7.47;4.28;;;;;;;26.39;nan;100879.16;4983822;28;20034;-68
2023/09/30 12:39:12;;;;;;;7.20;4.15;;;;;;;26.39;nan;100844.06;4981320;28;20026;-69
2023/09/30 12:41:41;;;;;;;9.95;4.30;;;;;;;26.53;nan;100895.19;4982944;28;20030;-68
2023/09/30 12:44:08;;;;;;;12.88;4.32;;;;;;;26.45;nan;100883.25;4980420;28;20117;-68
2023/09/30 12:46:34;;;;;;;9.25;3.83;;;;;;;26.41;nan;100876.94;4982948;28;20034;-69
2023/09/30 12:49:02;;;;;;;10.07;3.97;;;;;;;26.39;nan;100892.66;4981501;28;20054;-68
2023/09/30 12:51:28;;;;;;;9.02;3.90;;;;;;;26.43;nan;100958.41;4980961;28;20470;-68
2023/09/30 12:53:53;;;;;;;5.47;4.00;;;;;;;;;;4976783;28;20026;-68
2023/09/30 12:56:19;;;;;;;7.97;3.80;;;;;;;;;;4980640;28;20026;-69
2023/09/30 12:58:44;;;;;;;4.20;3.80;;;;;;;26.39;nan;100879.16;4983019;28;20027;-68
2023/09/30 13:01:09;;;;;;;12.25;4.05;;;;;;;26.39;nan;100921.59;4980064;28;20045;-69
2023/09/30 13:03:35;;;;;;;10.93;3.88;;;;;;;26.35;nan;100872.00;4979058;28;20034;-68
2023/09/30 13:06:01;;;;;;;6.45;4.30;;;;;;;26.50;nan;100888.50;4980726;28;20073;-69
2023/09/30 13:08:26;;;;;;;5.63;3.70;;;;;;;26.53;nan;100870.88;4979789;28;20037;-69
2023/09/30 13:10:52;;;;;;;8.60;3.42;;;;;;;26.47;nan;100866.75;4978333;28;20663;-69
2023/09/30 13:13:18;;;;;;;9.30;4.15;;;;;;;26.54;nan;100869.78;4991584;28;20029;-69
2023/09/30 13:15:43;;;;;;;7.30;4.00;;;;;;;26.47;nan;100905.34;4990917;28;20055;-69
2023/09/30 13:18:09;;;;;;;9.05;3.42;;;;;;;26.51;nan;100843.41;4990138;28;20033;-67
2023/09/30 13:20:34;;;;;;;8.93;3.35;;;;;;;26.44;nan;100841.19;4992816;28;20034;-68
2023/09/30 13:23:00;;;;;;;12.15;3.88;;;;;;;26.38;nan;100799.25;4992969;28;20117;-68